createdAt,value
2023-03-05T00:01:07.610Z,35.97
2023-03-05T00:03:35.312Z,34.63
2023-03-05T00:06:02.755Z,36.50
2023-03-05T00:08:30.773Z,33.23
2023-03-05T00:11:02.367Z,35.90
2023-03-05T00:13:29.708Z,35.53
2023-03-05T00:15:56.998Z,37.27
2023-03-05T00:18:24.565Z,36.90
2023-03-05T00:20:51.749Z,32.17
2023-03-05T00:23:18.963Z,36.43
2023-03-05T00:25:46.872Z,33.40
2023-03-05T00:28:14.334Z,34.83
2023-03-05T00:30:41.972Z,32.73
2023-03-05T00:33:11.714Z,35.10
2023-03-05T00:35:44.297Z,33.07
2023-03-05T00:38:12.656Z,34.50
2023-03-05T00:40:41.736Z,33.77
2023-03-05T00:43:09.949Z,33.50
2023-03-05T00:45:37.558Z,35.37
2023-03-05T00:48:05.366Z,36.40
2023-03-05T00:50:32.897Z,32.97
2023-03-05T00:53:00.111Z,40.33
2023-03-05T00:55:27.346Z,36.60
2023-03-05T00:57:54.889Z,34.37
2023-03-05T01:00:22.411Z,36.10
2023-03-05T01:02:49.856Z,37.07
2023-03-05T01:05:17.271Z,35.10
2023-03-05T01:07:44.517Z,37.53
2023-03-05T01:10:13.618Z,36.63
2023-03-05T01:12:41.061Z,33.47
2023-03-05T01:15:08.860Z,36.53
2023-03-05T01:17:36.150Z,36.33
2023-03-05T01:20:04.570Z,38.17
2023-03-05T01:22:31.818Z,36.07
2023-03-05T01:24:59.261Z,33.77
2023-03-05T01:27:26.783Z,35.70
2023-03-05T01:29:53.965Z,35.93
2023-03-05T01:32:21.152Z,33.93
2023-03-05T01:34:48.431Z,33.03
2023-03-05T01:37:15.697Z,34.93
2023-03-05T01:39:42.886Z,35.07
2023-03-05T01:42:10.287Z,36.43
2023-03-05T01:44:37.750Z,33.83
2023-03-05T01:47:06.243Z,33.83
2023-03-05T01:49:38.278Z,37.00
2023-03-05T01:52:21.689Z,36.13
2023-03-05T01:55:01.442Z,35.57
2023-03-05T01:57:43.624Z,32.63
2023-03-05T02:00:18.684Z,35.53
2023-03-05T02:02:50.110Z,36.57
2023-03-05T02:05:27.072Z,35.23
2023-03-05T02:07:56.094Z,35.87
2023-03-05T02:10:36.328Z,36.20
2023-03-05T02:13:07.713Z,37.43
2023-03-05T02:15:35.887Z,37.60
2023-03-05T02:18:03.326Z,35.83
2023-03-05T02:20:43.775Z,35.27
2023-03-05T02:23:10.990Z,36.73
2023-03-05T02:25:38.312Z,37.30
2023-03-05T02:28:15.149Z,39.17
2023-03-05T02:30:43.143Z,36.30
2023-03-05T02:33:10.704Z,34.67
2023-03-05T02:35:37.985Z,34.70
2023-03-05T02:38:05.914Z,36.10
2023-03-05T02:40:33.154Z,35.10
2023-03-05T02:43:00.340Z,34.50
2023-03-05T02:45:28.296Z,34.73
2023-03-05T02:47:55.560Z,34.40
2023-03-05T02:50:23.584Z,32.80
2023-03-05T02:52:50.764Z,33.00
2023-03-05T02:55:18.729Z,34.23
2023-03-05T02:57:46.197Z,32.53
2023-03-05T03:00:13.970Z,34.57
2023-03-05T03:02:41.257Z,32.10
2023-03-05T03:05:09.537Z,34.30
2023-03-05T03:07:36.702Z,34.80
2023-03-05T03:10:05.707Z,34.33
2023-03-05T03:12:40.240Z,36.87
2023-03-05T03:15:09.559Z,33.60
2023-03-05T03:17:37.730Z,35.13
2023-03-05T03:20:07.047Z,35.03
2023-03-05T03:22:34.545Z,35.37
2023-03-05T03:25:02.297Z,33.80
2023-03-05T03:27:29.491Z,37.83
2023-03-05T03:29:56.661Z,37.90
2023-03-05T03:32:24.157Z,35.17
2023-03-05T03:34:51.606Z,37.00
2023-03-05T03:37:18.805Z,39.33
2023-03-05T03:39:46.292Z,37.20
2023-03-05T03:42:13.468Z,40.97
2023-03-05T03:44:40.874Z,37.97
2023-03-05T03:47:08.062Z,38.63
2023-03-05T03:49:35.237Z,38.83
2023-03-05T03:52:02.496Z,40.53
2023-03-05T03:54:29.725Z,41.90
2023-03-05T03:56:57.079Z,36.70
2023-03-05T03:59:24.625Z,39.80
2023-03-05T04:01:52.005Z,40.03
2023-03-05T04:04:19.253Z,41.53
2023-03-05T04:06:46.850Z,42.73
2023-03-05T04:09:14.232Z,39.70
2023-03-05T04:11:41.637Z,39.93
2023-03-05T04:14:08.816Z,41.53
2023-03-05T04:16:36.037Z,38.00
2023-03-05T04:19:03.531Z,37.80
2023-03-05T04:21:30.848Z,39.67
2023-03-05T04:23:58.382Z,38.30
2023-03-05T04:26:25.579Z,37.97
2023-03-05T04:28:52.788Z,35.73
2023-03-05T04:31:20.917Z,39.73
2023-03-05T04:33:48.412Z,37.23
2023-03-05T04:36:15.760Z,35.77
2023-03-05T04:38:43.095Z,37.63
2023-03-05T04:41:10.334Z,35.63
2023-03-05T04:43:37.499Z,36.27
2023-03-05T04:46:04.906Z,35.63
2023-03-05T04:48:32.394Z,36.17
2023-03-05T04:50:59.618Z,33.33
2023-03-05T04:53:27.003Z,33.93
2023-03-05T04:55:55.305Z,33.07
2023-03-05T04:58:23.813Z,33.37
2023-03-05T05:00:51.455Z,36.67
2023-03-05T05:03:19.051Z,33.63
2023-03-05T05:05:53.686Z,34.00
2023-03-05T05:08:20.839Z,36.90
2023-03-05T05:10:59.705Z,33.73
2023-03-05T05:13:28.029Z,34.30
2023-03-05T05:15:56.113Z,34.30
2023-03-05T05:18:24.137Z,36.27
2023-03-05T05:20:51.481Z,38.87
2023-03-05T05:23:19.280Z,36.20
2023-03-05T05:25:46.538Z,36.23
2023-03-05T05:28:13.966Z,38.07
2023-03-05T05:30:41.208Z,39.60
2023-03-05T05:33:08.380Z,36.17
2023-03-05T05:35:39.529Z,36.07
2023-03-05T05:38:06.819Z,35.43
2023-03-05T05:40:34.120Z,35.27
2023-03-05T05:43:01.302Z,35.13
2023-03-05T05:45:28.634Z,35.57
2023-03-05T05:47:55.939Z,37.23
2023-03-05T05:50:23.144Z,35.70
2023-03-05T05:52:51.905Z,35.23
2023-03-05T05:55:19.270Z,35.20
2023-03-05T05:57:46.528Z,33.00
2023-03-05T06:00:14.931Z,35.03
2023-03-05T06:02:43.521Z,35.87
2023-03-05T06:05:13.255Z,33.60
2023-03-05T06:07:40.442Z,35.23
2023-03-05T06:10:09.832Z,34.60
2023-03-05T06:12:37.134Z,31.33
2023-03-05T06:15:04.721Z,35.63
2023-03-05T06:17:31.894Z,34.03
2023-03-05T06:19:59.807Z,32.87
2023-03-05T06:22:27.249Z,33.47
2023-03-05T06:24:54.407Z,35.77
2023-03-05T06:27:21.912Z,33.47
2023-03-05T06:29:53.132Z,32.17
2023-03-05T06:32:20.906Z,29.03
2023-03-05T06:34:48.458Z,32.17
2023-03-05T06:37:15.693Z,30.77
2023-03-05T06:39:43.078Z,31.37
2023-03-05T06:42:10.394Z,30.93
2023-03-05T06:44:41.514Z,34.20
2023-03-05T06:47:10.412Z,32.57
2023-03-05T06:49:38.550Z,32.97
2023-03-05T06:52:06.726Z,28.67
2023-03-05T06:54:34.315Z,31.30
2023-03-05T06:57:01.823Z,32.80
2023-03-05T06:59:29.100Z,29.10
2023-03-05T07:01:56.277Z,32.07
2023-03-05T07:04:24.347Z,31.97
2023-03-05T07:06:51.678Z,29.40
2023-03-05T07:09:19.876Z,30.77
2023-03-05T07:11:47.161Z,31.30
2023-03-05T07:14:14.390Z,31.03
2023-03-05T07:16:41.602Z,30.23
2023-03-05T07:19:11.060Z,30.80
2023-03-05T07:21:40.007Z,31.03
2023-03-05T07:24:08.383Z,29.83
2023-03-05T07:26:36.077Z,30.73
2023-03-05T07:29:03.609Z,29.90
2023-03-05T07:31:32.392Z,30.90
2023-03-05T07:34:01.734Z,31.37
2023-03-05T07:36:29.959Z,33.30
2023-03-05T07:38:57.319Z,32.77
2023-03-05T07:41:24.870Z,33.33
2023-03-05T07:43:53.806Z,33.03
2023-03-05T07:46:24.027Z,31.33
2023-03-05T07:48:51.779Z,34.13
2023-03-05T07:51:19.986Z,29.97
2023-03-05T07:53:48.950Z,30.83
2023-03-05T07:56:26.598Z,30.60
2023-03-05T07:58:53.767Z,30.43
2023-03-05T08:01:21.169Z,33.43
2023-03-05T08:03:48.427Z,34.80
2023-03-05T08:06:15.961Z,30.63
2023-03-05T08:08:43.169Z,33.57
2023-03-05T08:11:13.131Z,34.07
2023-03-05T08:13:40.914Z,30.47
2023-03-05T08:16:14.277Z,32.13
2023-03-05T08:18:42.170Z,33.47
2023-03-05T08:21:33.628Z,31.17
2023-03-05T08:24:02.139Z,29.13
2023-03-05T08:26:31.281Z,30.77
2023-03-05T08:28:58.928Z,34.23
2023-03-05T08:31:27.862Z,29.37
2023-03-05T08:33:57.308Z,30.37
2023-03-05T08:36:24.668Z,31.97
2023-03-05T08:38:51.910Z,28.53
2023-03-05T08:41:19.764Z,28.57
2023-03-05T08:43:47.292Z,31.07
2023-03-05T08:46:16.365Z,32.37
2023-03-05T08:48:43.747Z,30.20
2023-03-05T08:51:14.565Z,32.07
2023-03-05T08:53:43.417Z,32.07
2023-03-05T08:56:11.389Z,31.03
2023-03-05T08:58:38.609Z,29.83
2023-03-05T09:01:06.802Z,33.00
2023-03-05T09:03:34.564Z,28.77
2023-03-05T09:06:03.935Z,31.33
2023-03-05T09:08:31.359Z,32.17
2023-03-05T09:10:58.677Z,30.00
2023-03-05T09:13:25.916Z,30.90
2023-03-05T09:15:58.186Z,29.70
2023-03-05T09:18:26.026Z,29.37
2023-03-05T09:20:53.859Z,29.70
2023-03-05T09:23:23.005Z,32.00
2023-03-05T09:25:50.528Z,31.07
2023-03-05T09:28:18.096Z,29.27
2023-03-05T09:30:45.249Z,27.77
2023-03-05T09:33:13.004Z,30.93
2023-03-05T09:35:40.276Z,31.20
2023-03-05T09:38:07.629Z,32.87
2023-03-05T09:40:50.193Z,31.03
2023-03-05T09:43:31.198Z,29.47
2023-03-05T09:46:17.012Z,30.30
2023-03-05T09:49:16.125Z,32.63
2023-03-05T09:51:46.900Z,28.80
2023-03-05T09:54:21.589Z,31.47
2023-03-05T09:56:58.856Z,30.27
2023-03-05T09:59:29.045Z,31.37
2023-03-05T10:02:12.051Z,30.33
2023-03-05T10:04:43.827Z,31.57
2023-03-05T10:07:20.654Z,29.67
2023-03-05T10:09:50.865Z,33.03
2023-03-05T10:12:35.813Z,32.13
2023-03-05T10:15:03.205Z,29.30
2023-03-05T10:17:39.500Z,29.73
2023-03-05T10:20:22.716Z,29.97
2023-03-05T10:22:52.874Z,30.90
2023-03-05T10:25:35.288Z,29.20
2023-03-05T10:28:17.751Z,31.53
2023-03-05T10:31:09.123Z,31.60
2023-03-05T10:33:51.467Z,30.07
2023-03-05T10:36:48.195Z,30.97
2023-03-05T10:39:43.974Z,29.57
2023-03-05T10:42:41.206Z,30.77
2023-03-05T10:45:38.015Z,30.70
2023-03-05T10:48:10.295Z,30.87
2023-03-05T10:50:44.613Z,30.17
2023-03-05T10:53:29.043Z,29.50
2023-03-05T10:55:56.563Z,29.50
2023-03-05T10:58:25.038Z,32.17
2023-03-05T11:01:04.727Z,31.93
2023-03-05T11:04:01.467Z,27.77
2023-03-05T11:06:36.334Z,28.70
2023-03-05T11:09:18.500Z,30.93
2023-03-05T11:12:15.806Z,27.57
2023-03-05T11:15:01.477Z,29.10
2023-03-05T11:17:32.564Z,30.43
2023-03-05T11:20:22.606Z,30.00
2023-03-05T11:23:10.078Z,27.73
2023-03-05T11:25:57.188Z,27.03
2023-03-05T11:28:37.888Z,27.47
2023-03-05T11:31:16.774Z,27.67
2023-03-05T11:34:21.005Z,29.63
2023-03-05T11:36:52.831Z,26.47
2023-03-05T11:39:26.282Z,28.90
2023-03-05T11:41:58.794Z,26.13
2023-03-05T11:44:36.796Z,25.03
2023-03-05T11:47:22.837Z,25.70
2023-03-05T11:49:54.240Z,27.07
2023-03-05T11:52:32.405Z,27.17
2023-03-05T11:55:09.107Z,25.40
2023-03-05T11:58:11.619Z,25.97
2023-03-05T12:00:43.329Z,25.20
2023-03-05T12:03:18.253Z,29.57
2023-03-05T12:05:50.058Z,30.07
2023-03-05T12:08:27.036Z,27.43
2023-03-05T12:10:55.041Z,28.17
2023-03-05T12:13:37.495Z,28.67
2023-03-05T12:16:30.350Z,28.20
2023-03-05T12:19:10.610Z,27.57
2023-03-05T12:21:41.192Z,24.43
2023-03-05T12:24:24.327Z,22.57
2023-03-05T12:26:53.149Z,24.60
2023-03-05T12:29:43.952Z,23.47
2023-03-05T12:32:25.632Z,19.67
2023-03-05T12:34:57.895Z,18.43
2023-03-05T12:37:25.541Z,15.60
2023-03-05T12:40:17.916Z,16.50
2023-03-05T12:43:12.819Z,18.60
2023-03-05T12:45:41.768Z,18.97
2023-03-05T12:48:12.707Z,16.53
2023-03-05T12:50:39.891Z,20.60
2023-03-05T12:53:07.079Z,18.60
2023-03-05T12:55:45.931Z,18.03
2023-03-05T12:58:40.281Z,21.67
2023-03-05T13:01:10.540Z,19.53
2023-03-05T13:03:44.608Z,20.63
2023-03-05T13:06:36.297Z,20.30
2023-03-05T13:09:31.770Z,21.77
2023-03-05T13:11:59.468Z,21.70
2023-03-05T13:14:40.829Z,17.33
2023-03-05T13:17:38.266Z,16.77
2023-03-05T13:20:42.716Z,19.20
2023-03-05T13:23:27.213Z,16.93
2023-03-05T13:26:00.132Z,17.07
2023-03-05T13:28:28.357Z,17.67
2023-03-05T13:30:59.645Z,18.57
2023-03-05T13:33:30.768Z,16.73
2023-03-05T13:35:58.453Z,16.37
2023-03-05T13:38:29.131Z,18.40
2023-03-05T13:41:19.375Z,18.20
2023-03-05T13:43:53.768Z,17.17
2023-03-05T13:46:32.700Z,20.23
2023-03-05T13:49:20.295Z,16.17
2023-03-05T13:51:50.551Z,14.67
2023-03-05T13:54:18.897Z,15.90
2023-03-05T13:56:50.261Z,15.37
2023-03-05T13:59:20.175Z,18.03
2023-03-05T14:01:48.301Z,15.10
2023-03-05T14:04:15.718Z,19.10
2023-03-05T14:06:54.970Z,19.57
2023-03-05T14:09:31.091Z,17.00
2023-03-05T14:12:07.349Z,16.40
2023-03-05T14:14:37.808Z,16.70
2023-03-05T14:17:35.251Z,16.07
2023-03-05T14:20:12.890Z,20.17
2023-03-05T14:22:43.257Z,19.77
2023-03-05T14:25:26.740Z,18.20
2023-03-05T14:27:54.022Z,16.63
2023-03-05T14:30:22.794Z,17.57
2023-03-05T14:32:53.065Z,16.33
2023-03-05T14:35:24.657Z,17.10
2023-03-05T14:37:53.832Z,18.73
2023-03-05T14:40:22.711Z,20.07
2023-03-05T14:42:56.208Z,21.30
2023-03-05T14:45:36.577Z,17.87
2023-03-05T14:48:06.419Z,17.87
2023-03-05T14:50:44.222Z,18.60
2023-03-05T14:53:21.368Z,19.23
2023-03-05T14:55:51.351Z,18.37
2023-03-05T14:58:21.890Z,17.80
2023-03-05T15:00:51.213Z,19.47
2023-03-05T15:03:19.918Z,21.67
2023-03-05T15:05:50.350Z,20.57
2023-03-05T15:08:21.270Z,20.13
2023-03-05T15:10:49.274Z,18.00
2023-03-05T15:13:17.145Z,19.43
2023-03-05T15:15:46.080Z,19.57
2023-03-05T15:18:15.186Z,21.23
2023-03-05T15:20:42.847Z,20.03
2023-03-05T15:23:10.096Z,19.73
2023-03-05T15:25:37.348Z,19.67
2023-03-05T15:28:10.362Z,20.20
2023-03-05T15:30:40.945Z,23.47
2023-03-05T15:33:14.238Z,23.37
2023-03-05T15:35:41.951Z,18.73
2023-03-05T15:38:09.157Z,21.87
2023-03-05T15:40:36.405Z,22.43
2023-03-05T15:43:03.912Z,22.50
2023-03-05T15:45:31.363Z,24.97
2023-03-05T15:47:58.753Z,22.03
2023-03-05T15:50:25.952Z,21.37
2023-03-05T15:52:53.384Z,24.50
2023-03-05T15:55:21.368Z,20.13
2023-03-05T15:57:51.364Z,20.97
2023-03-05T16:00:25.567Z,26.50
2023-03-05T16:02:53.484Z,23.50
2023-03-05T16:05:20.851Z,23.37
2023-03-05T16:07:51.739Z,21.90
2023-03-05T16:10:26.729Z,19.87
2023-03-05T16:13:20.601Z,19.40
2023-03-05T16:15:52.838Z,19.00
2023-03-05T16:18:21.310Z,18.33
2023-03-05T16:20:48.735Z,19.53
2023-03-05T16:23:16.243Z,16.20
2023-03-05T16:25:43.521Z,16.17
2023-03-05T16:28:10.864Z,15.57
2023-03-05T16:30:38.177Z,17.20
2023-03-05T16:33:05.708Z,14.87
2023-03-05T16:35:33.056Z,16.10
2023-03-05T16:38:00.318Z,17.83
2023-03-05T16:40:38.884Z,17.40
2023-03-05T16:43:14.928Z,13.07
2023-03-05T16:45:42.114Z,14.27
2023-03-05T16:48:09.327Z,14.17
2023-03-05T16:50:36.626Z,17.13
2023-03-05T16:53:03.798Z,16.17
2023-03-05T16:55:31.012Z,14.70
2023-03-05T16:57:58.443Z,14.83
2023-03-05T17:00:25.656Z,14.37
2023-03-05T17:02:52.857Z,14.50
2023-03-05T17:05:20.285Z,13.57
2023-03-05T17:07:47.801Z,14.43
2023-03-05T17:10:15.225Z,14.10
2023-03-05T17:12:43.600Z,14.00
2023-03-05T17:15:11.223Z,13.73
2023-03-05T17:17:39.432Z,15.80
2023-03-05T17:20:07.673Z,14.23
2023-03-05T17:22:35.227Z,15.40
2023-03-05T17:25:02.490Z,15.77
2023-03-05T17:27:29.686Z,14.33
2023-03-05T17:29:56.874Z,14.03
2023-03-05T17:32:24.142Z,13.50
2023-03-05T17:34:55.407Z,14.20
2023-03-05T17:37:23.079Z,17.97
2023-03-05T17:39:50.368Z,13.67
2023-03-05T17:42:20.386Z,13.93
2023-03-05T17:47:20.486Z,13.53
2023-03-05T17:49:47.689Z,13.40
2023-03-05T17:52:15.096Z,13.10
2023-03-05T17:54:42.330Z,12.00
2023-03-05T17:57:09.505Z,12.93
2023-03-05T17:59:36.695Z,15.00
2023-03-05T18:02:03.888Z,12.33
2023-03-05T18:04:31.169Z,13.90
2023-03-05T18:06:58.477Z,12.90
2023-03-05T18:09:25.736Z,14.23
2023-03-05T18:11:53.273Z,15.07
2023-03-05T18:14:20.440Z,14.00
2023-03-05T18:16:47.806Z,13.90
2023-03-05T18:19:16.508Z,14.33
2023-03-05T18:21:43.941Z,15.77
2023-03-05T18:24:11.243Z,14.67
2023-03-05T18:26:38.677Z,13.27
2023-03-05T18:29:05.821Z,13.20
2023-03-05T18:31:33.037Z,14.17
2023-03-05T18:34:00.214Z,13.70
2023-03-05T18:36:27.415Z,15.47
2023-03-05T18:38:54.569Z,15.57
2023-03-05T18:41:26.448Z,16.33
2023-03-05T18:43:55.089Z,14.83
2023-03-05T18:46:22.847Z,29.50
2023-03-05T18:48:50.589Z,15.87
2023-03-05T18:51:21.777Z,12.57
2023-03-05T18:53:51.164Z,12.53
2023-03-05T18:56:18.402Z,14.63
2023-03-05T18:58:46.407Z,14.53
2023-03-05T19:01:17.261Z,18.40
2023-03-05T19:03:45.326Z,16.60
2023-03-05T19:06:12.943Z,19.57
2023-03-05T19:08:40.129Z,15.10
2023-03-05T19:11:15.960Z,16.53
2023-03-05T19:13:46.514Z,18.37
2023-03-05T19:16:17.788Z,24.43
2023-03-05T19:19:09.138Z,17.47
2023-03-05T19:21:50.758Z,21.23
2023-03-05T19:24:18.083Z,20.80
2023-03-05T19:26:45.286Z,18.43
2023-03-05T19:29:12.697Z,24.33
2023-03-05T19:31:41.690Z,19.07
2023-03-05T19:34:09.119Z,19.00
2023-03-05T19:36:36.551Z,19.27
2023-03-05T19:39:07.867Z,21.40
2023-03-05T19:41:35.833Z,19.30
2023-03-05T19:44:04.109Z,20.60
2023-03-05T19:46:31.633Z,19.77
2023-03-05T19:48:59.017Z,23.33
2023-03-05T19:51:26.758Z,21.27
2023-03-05T19:53:53.966Z,23.77
2023-03-05T19:56:21.255Z,20.70
2023-03-05T19:58:49.247Z,21.60
2023-03-05T20:01:16.473Z,23.60
2023-03-05T20:03:48.548Z,20.60
2023-03-05T20:06:16.230Z,22.23
2023-03-05T20:08:44.371Z,20.30
2023-03-05T20:11:13.229Z,18.77
2023-03-05T20:13:41.041Z,18.50
2023-03-05T20:16:20.006Z,17.87
2023-03-05T20:18:52.458Z,109.27
2023-03-05T20:21:23.298Z,26.77
2023-03-05T20:23:52.001Z,19.77
2023-03-05T20:26:21.109Z,21.43
2023-03-05T20:28:49.292Z,19.53
2023-03-05T20:31:19.865Z,20.40
2023-03-05T20:33:47.275Z,21.47
2023-03-05T20:36:14.611Z,23.13
2023-03-05T20:38:42.481Z,25.10
2023-03-05T20:41:13.893Z,20.30
2023-03-05T20:43:46.081Z,19.43
2023-03-05T20:46:20.200Z,20.87
2023-03-05T20:48:49.452Z,21.50
2023-03-05T20:51:22.779Z,22.73
2023-03-05T20:53:57.908Z,22.70
2023-03-05T20:56:27.794Z,22.27
2023-03-05T20:58:55.608Z,24.70
2023-03-05T21:01:22.742Z,24.90
2023-03-05T21:03:49.952Z,23.67
2023-03-05T21:06:17.087Z,24.77
2023-03-05T21:08:44.307Z,23.53
2023-03-05T21:11:12.440Z,24.13
2023-03-05T21:13:39.661Z,23.40
2023-03-05T21:16:08.819Z,25.33
2023-03-05T21:18:36.324Z,28.27
2023-03-05T21:21:03.714Z,25.03
2023-03-05T21:23:30.885Z,26.83
2023-03-05T21:25:58.504Z,24.93
2023-03-05T21:28:25.737Z,25.67
2023-03-05T21:30:54.334Z,25.20
2023-03-05T21:33:27.939Z,26.70
2023-03-05T21:35:57.924Z,24.77
2023-03-05T21:38:27.092Z,25.90
2023-03-05T21:40:54.341Z,25.23
2023-03-05T21:43:23.606Z,27.40
2023-03-05T21:45:53.501Z,24.97
2023-03-05T21:48:22.113Z,25.13
2023-03-05T21:50:50.252Z,28.23
2023-03-05T21:53:19.225Z,25.17
2023-03-05T21:56:25.894Z,31.30
2023-03-05T21:58:53.922Z,27.97
2023-03-05T22:01:21.793Z,24.80
2023-03-05T22:03:49.308Z,29.17
2023-03-05T22:06:18.780Z,30.37
2023-03-05T22:08:47.009Z,29.53
2023-03-05T22:11:16.312Z,29.20
2023-03-05T22:13:43.874Z,27.50
2023-03-05T22:16:11.881Z,26.27
2023-03-05T22:18:39.138Z,27.57
2023-03-05T22:21:18.008Z,28.60
2023-03-05T22:23:45.269Z,28.60
2023-03-05T22:26:12.479Z,27.33
2023-03-05T22:28:40.188Z,24.57
2023-03-05T22:31:07.421Z,26.07
2023-03-05T22:33:35.188Z,27.93
2023-03-05T22:36:10.781Z,27.47
2023-03-05T22:38:38.047Z,25.30
2023-03-05T22:41:10.533Z,28.30
2023-03-05T22:43:38.010Z,29.67
2023-03-05T22:46:17.313Z,27.53
2023-03-05T22:48:45.103Z,24.37
2023-03-05T22:51:12.681Z,26.13
2023-03-05T22:53:40.526Z,25.57
2023-03-05T22:56:10.878Z,29.60
2023-03-05T22:58:38.484Z,27.33
2023-03-05T23:01:25.771Z,22.73
2023-03-05T23:04:27.854Z,27.47
2023-03-05T23:07:13.512Z,27.73
2023-03-05T23:09:40.763Z,23.13
2023-03-05T23:12:08.304Z,22.83
2023-03-05T23:14:35.474Z,25.17
2023-03-05T23:17:03.684Z,24.90
2023-03-05T23:19:30.914Z,28.73
2023-03-05T23:21:58.132Z,24.33
2023-03-05T23:24:25.541Z,26.33
2023-03-05T23:26:52.710Z,26.03
2023-03-05T23:29:50.127Z,23.60
2023-03-05T23:32:40.101Z,22.77
2023-03-05T23:35:10.254Z,24.23
2023-03-05T23:37:37.615Z,22.57
2023-03-05T23:40:06.956Z,24.60
2023-03-05T23:42:34.241Z,23.80
2023-03-05T23:45:01.460Z,25.30
2023-03-05T23:47:28.877Z,23.83
2023-03-05T23:49:56.109Z,23.43
2023-03-05T23:52:23.292Z,22.83
2023-03-05T23:54:50.718Z,24.47
2023-03-05T23:57:17.897Z,24.50
2023-03-05T23:59:45.114Z,21.07
